createdAt,value
2018-10-17T00:02:07.738Z,12.60
2018-10-17T00:04:36.229Z,12.50
2018-10-17T00:07:05.014Z,12.60
2018-10-17T00:09:33.602Z,12.60
2018-10-17T00:12:02.101Z,12.60
2018-10-17T00:14:30.605Z,12.50
2018-10-17T00:16:59.768Z,12.50
2018-10-17T00:19:28.426Z,12.50
2018-10-17T00:21:56.855Z,12.50
2018-10-17T00:24:25.351Z,12.40
2018-10-17T00:26:53.878Z,12.40
2018-10-17T00:29:22.346Z,12.40
2018-10-17T00:31:50.803Z,12.40
2018-10-17T00:34:19.463Z,12.40
2018-10-17T00:36:47.900Z,12.30
2018-10-17T00:39:16.979Z,12.30
2018-10-17T00:41:45.457Z,12.30
2018-10-17T00:44:13.918Z,12.30
2018-10-17T00:46:42.364Z,12.30
2018-10-17T00:49:10.960Z,12.30
2018-10-17T00:51:40.122Z,12.20
2018-10-17T00:54:08.554Z,12.20
2018-10-17T00:56:37.332Z,12.10
2018-10-17T00:59:09.124Z,12.10
2018-10-17T01:01:38.180Z,12.00
2018-10-17T01:04:07.319Z,12.00
2018-10-17T01:06:36.847Z,12.00
2018-10-17T01:09:09.218Z,12.00
2018-10-17T01:11:38.243Z,12.00
2018-10-17T01:14:07.603Z,12.00
2018-10-17T01:16:36.388Z,12.00
2018-10-17T01:19:05.361Z,11.90
2018-10-17T01:21:34.629Z,11.90
2018-10-17T01:24:03.124Z,11.90
2018-10-17T01:26:31.586Z,11.90
2018-10-17T01:29:00.121Z,11.90
2018-10-17T01:31:28.702Z,11.90
2018-10-17T01:33:57.135Z,11.90
2018-10-17T01:36:25.566Z,11.90
2018-10-17T01:38:54.012Z,11.80
2018-10-17T01:41:22.481Z,11.90
2018-10-17T01:43:50.926Z,11.90
2018-10-17T01:46:19.746Z,11.80
2018-10-17T01:48:48.169Z,11.80
2018-10-17T01:51:16.630Z,11.80
2018-10-17T01:53:45.062Z,11.80
2018-10-17T01:56:13.526Z,11.80
2018-10-17T01:58:41.988Z,11.80
2018-10-17T02:01:10.500Z,11.80
2018-10-17T02:03:39.077Z,11.80
2018-10-17T02:06:07.862Z,11.80
2018-10-17T02:08:36.334Z,11.80
2018-10-17T02:11:05.031Z,11.90
2018-10-17T02:13:33.600Z,11.80
2018-10-17T02:16:02.038Z,11.80
2018-10-17T02:18:30.479Z,11.80
2018-10-17T02:20:58.926Z,11.80
2018-10-17T02:23:28.084Z,11.80
2018-10-17T02:25:56.530Z,11.80
2018-10-17T02:28:24.959Z,11.80
2018-10-17T02:30:53.494Z,11.80
2018-10-17T02:33:22.050Z,11.70
2018-10-17T02:35:50.487Z,11.70
2018-10-17T02:38:18.946Z,11.70
2018-10-17T02:40:47.395Z,11.70
2018-10-17T02:43:15.884Z,11.60
2018-10-17T02:45:45.369Z,11.70
2018-10-17T02:48:13.827Z,11.60
2018-10-17T02:50:42.291Z,11.70
2018-10-17T02:53:10.855Z,11.60
2018-10-17T02:55:39.386Z,11.60
2018-10-17T02:58:07.843Z,11.60
2018-10-17T03:00:36.818Z,11.60
2018-10-17T03:03:05.376Z,11.60
2018-10-17T03:05:33.822Z,11.60
2018-10-17T03:08:02.995Z,11.60
2018-10-17T03:10:31.620Z,11.50
2018-10-17T03:13:00.367Z,11.50
2018-10-17T03:15:29.024Z,11.40
2018-10-17T03:17:57.466Z,11.40
2018-10-17T03:20:25.939Z,11.30
2018-10-17T03:22:54.458Z,11.30
2018-10-17T03:25:23.039Z,11.30
2018-10-17T03:27:51.508Z,11.30
2018-10-17T03:30:20.475Z,11.30
2018-10-17T03:32:48.915Z,11.40
2018-10-17T03:35:17.419Z,11.40
2018-10-17T03:37:45.967Z,11.40
2018-10-17T03:40:14.404Z,11.40
2018-10-17T03:42:42.859Z,11.40
2018-10-17T03:45:11.317Z,11.40
2018-10-17T03:47:39.743Z,11.30
2018-10-17T03:50:08.276Z,11.30
2018-10-17T03:52:36.829Z,11.30
2018-10-17T03:55:05.529Z,11.30
2018-10-17T03:57:47.041Z,11.20
2018-10-17T04:00:16.004Z,11.20
2018-10-17T04:02:44.435Z,11.20
2018-10-17T04:05:12.974Z,11.20
2018-10-17T04:07:41.556Z,11.10
2018-10-17T04:10:10.034Z,11.10
2018-10-17T04:12:38.438Z,11.10
2018-10-17T04:15:07.964Z,11.10
2018-10-17T04:17:36.439Z,11.20
2018-10-17T04:20:05.160Z,11.20
2018-10-17T04:22:33.668Z,11.20
2018-10-17T04:25:02.272Z,11.20
2018-10-17T04:27:30.868Z,11.20
2018-10-17T04:29:59.311Z,11.10
2018-10-17T04:32:27.762Z,11.10
2018-10-17T04:34:56.243Z,11.10
2018-10-17T04:37:24.834Z,11.10
2018-10-17T04:39:53.301Z,11.10
2018-10-17T04:42:21.740Z,11.10
2018-10-17T04:44:50.190Z,11.10
2018-10-17T04:47:18.716Z,11.00
2018-10-17T04:49:47.290Z,11.00
2018-10-17T04:52:15.720Z,11.00
2018-10-17T04:54:44.180Z,11.00
2018-10-17T04:57:12.626Z,11.00
2018-10-17T04:59:41.058Z,11.00
2018-10-17T05:02:09.525Z,11.00
2018-10-17T05:04:38.056Z,11.00
2018-10-17T05:07:07.023Z,11.00
2018-10-17T05:09:35.627Z,11.00
2018-10-17T05:12:04.099Z,10.90
2018-10-17T05:14:32.533Z,10.90
2018-10-17T05:17:01.039Z,10.90
2018-10-17T05:19:29.629Z,10.90
2018-10-17T05:21:58.092Z,10.90
2018-10-17T05:24:26.511Z,11.00
2018-10-17T05:26:54.971Z,11.00
2018-10-17T05:29:23.400Z,11.00
2018-10-17T05:31:51.866Z,11.00
2018-10-17T05:34:20.292Z,11.00
2018-10-17T05:36:48.763Z,11.00
2018-10-17T05:39:17.455Z,11.00
2018-10-17T05:41:45.950Z,11.10
2018-10-17T05:44:14.400Z,11.10
2018-10-17T05:46:43.031Z,11.00
2018-10-17T05:49:11.576Z,11.00
2018-10-17T05:51:40.158Z,11.00
2018-10-17T05:54:08.614Z,11.10
2018-10-17T05:56:38.446Z,11.10
2018-10-17T05:59:06.962Z,11.10
2018-10-17T06:01:36.188Z,11.10
2018-10-17T06:04:04.898Z,11.10
2018-10-17T06:06:33.498Z,11.10
2018-10-17T06:09:01.995Z,11.10
2018-10-17T06:11:30.461Z,11.10
2018-10-17T06:13:58.922Z,11.10
2018-10-17T06:16:27.871Z,11.10
2018-10-17T06:18:56.374Z,11.20
2018-10-17T06:21:24.956Z,11.20
2018-10-17T06:23:53.419Z,11.20
2018-10-17T06:26:22.178Z,11.30
2018-10-17T06:28:50.708Z,11.30
2018-10-17T06:31:19.382Z,11.30
2018-10-17T06:33:48.301Z,11.30
2018-10-17T06:36:16.767Z,11.30
2018-10-17T06:38:45.204Z,11.40
2018-10-17T06:41:13.718Z,11.40
2018-10-17T06:43:42.421Z,11.40
2018-10-17T06:46:11.115Z,11.50
2018-10-17T06:48:39.708Z,11.50
2018-10-17T06:51:08.194Z,11.50
2018-10-17T06:53:36.842Z,11.60
2018-10-17T06:56:06.682Z,11.70
2018-10-17T06:58:35.151Z,11.70
2018-10-17T07:01:05.320Z,11.70
2018-10-17T07:03:35.346Z,11.80
2018-10-17T07:06:03.872Z,11.80
2018-10-17T07:08:32.536Z,11.90
2018-10-17T07:11:01.837Z,12.00
2018-10-17T07:13:30.428Z,12.00
2018-10-17T07:16:03.983Z,12.00
2018-10-17T07:18:34.338Z,12.10
2018-10-17T07:21:03.722Z,12.10
2018-10-17T07:23:33.469Z,12.20
2018-10-17T07:26:11.343Z,12.30
2018-10-17T07:28:45.241Z,12.40
2018-10-17T07:31:17.683Z,12.50
2018-10-17T07:33:51.877Z,12.60
2018-10-17T07:36:25.204Z,12.70
2018-10-17T07:38:54.985Z,12.90
2018-10-17T07:41:24.874Z,13.00
2018-10-17T07:43:58.647Z,13.10
2018-10-17T07:46:48.402Z,13.20
2018-10-17T07:49:17.225Z,13.40
2018-10-17T07:52:03.001Z,13.50
2018-10-17T07:55:57.775Z,13.60
2018-10-17T07:58:26.400Z,13.80
2018-10-17T08:00:54.948Z,14.00
2018-10-17T08:03:23.577Z,14.20
2018-10-17T08:05:52.067Z,14.40
2018-10-17T08:08:20.842Z,14.50
2018-10-17T08:10:49.551Z,14.60
2018-10-17T08:13:24.441Z,14.70
2018-10-17T08:15:53.160Z,14.70
2018-10-17T08:18:22.100Z,14.80
2018-10-17T08:20:52.854Z,14.90
2018-10-17T08:23:25.724Z,15.00
2018-10-17T08:25:54.398Z,15.10
2018-10-17T08:28:24.147Z,15.20
2018-10-17T08:30:55.663Z,15.30
2018-10-17T08:33:33.937Z,15.40
2018-10-17T08:36:07.983Z,15.60
2018-10-17T08:38:37.047Z,15.70
2018-10-17T08:41:06.260Z,15.80
2018-10-17T08:43:34.961Z,15.90
2018-10-17T08:46:03.532Z,16.00
2018-10-17T08:48:32.067Z,16.10
2018-10-17T08:51:00.529Z,16.20
2018-10-17T08:53:29.099Z,16.30
2018-10-17T08:55:58.983Z,16.40
2018-10-17T08:58:27.663Z,16.60
2018-10-17T09:00:56.172Z,16.80
2018-10-17T09:03:24.652Z,16.90
2018-10-17T09:05:53.260Z,17.00
2018-10-17T09:08:22.117Z,17.10
2018-10-17T09:10:50.816Z,17.30
2018-10-17T09:13:30.460Z,17.40
2018-10-17T09:16:01.518Z,17.60
2018-10-17T09:18:31.276Z,17.70
2018-10-17T09:21:02.177Z,17.80
2018-10-17T09:23:35.737Z,17.90
2018-10-17T09:26:05.733Z,18.00
2018-10-17T09:28:35.330Z,18.10
2018-10-17T09:31:07.519Z,18.20
2018-10-17T09:33:42.086Z,18.30
2018-10-17T09:36:10.803Z,18.50
2018-10-17T09:38:42.629Z,18.60
2018-10-17T09:41:14.929Z,18.70
2018-10-17T09:43:43.774Z,18.80
2018-10-17T09:46:14.519Z,19.00
2018-10-17T09:48:45.091Z,19.10
2018-10-17T09:51:16.336Z,19.20
2018-10-17T09:53:46.119Z,19.30
2018-10-17T09:56:15.253Z,19.40
2018-10-17T09:58:47.473Z,19.50
2018-10-17T10:01:22.394Z,19.60
2018-10-17T10:03:52.524Z,19.70
2018-10-17T10:06:22.756Z,19.80
2018-10-17T10:08:56.045Z,19.90
2018-10-17T10:11:28.172Z,20.00
2018-10-17T10:14:00.858Z,20.10
2018-10-17T10:16:30.494Z,20.10
2018-10-17T10:19:00.696Z,20.10
2018-10-17T10:21:31.747Z,20.10
2018-10-17T10:24:03.263Z,20.10
2018-10-17T10:26:32.377Z,20.10
2018-10-17T10:29:00.912Z,20.20
2018-10-17T10:31:29.392Z,20.20
2018-10-17T10:33:58.661Z,20.20
2018-10-17T10:36:27.676Z,20.20
2018-10-17T10:38:56.168Z,20.20
2018-10-17T10:41:24.684Z,20.30
2018-10-17T10:43:53.267Z,20.40
2018-10-17T10:46:21.779Z,20.60
2018-10-17T10:48:50.293Z,20.70
2018-10-17T10:51:18.886Z,20.60
2018-10-17T10:55:16.715Z,20.60
2018-10-17T10:57:45.247Z,20.70
2018-10-17T11:00:13.836Z,20.70
2018-10-17T11:02:42.443Z,20.70
2018-10-17T11:05:11.055Z,20.70
2018-10-17T11:07:39.708Z,20.80
2018-10-17T11:10:08.310Z,20.80
2018-10-17T11:12:36.849Z,20.90
2018-10-17T11:15:06.832Z,20.90
2018-10-17T11:17:35.402Z,20.90
2018-10-17T11:20:04.674Z,20.80
2018-10-17T11:22:33.186Z,20.80
2018-10-17T11:25:01.762Z,20.90
2018-10-17T11:27:30.295Z,21.00
2018-10-17T11:29:58.820Z,21.00
2018-10-17T11:32:27.360Z,20.90
2018-10-17T11:34:55.950Z,20.90
2018-10-17T11:37:24.599Z,20.90
2018-10-17T11:39:53.354Z,20.90
2018-10-17T11:42:22.279Z,20.80
2018-10-17T11:44:50.865Z,20.80
2018-10-17T11:47:19.587Z,20.70
2018-10-17T11:49:48.451Z,20.80
2018-10-17T11:52:17.119Z,20.90
2018-10-17T11:54:45.703Z,21.00
2018-10-17T11:57:14.240Z,20.90
2018-10-17T11:59:42.886Z,20.90
2018-10-17T12:02:11.359Z,20.90
2018-10-17T12:04:40.214Z,20.90
2018-10-17T12:07:10.050Z,20.90
2018-10-17T12:09:38.608Z,20.90
2018-10-17T12:12:07.145Z,20.90
2018-10-17T12:14:35.821Z,20.90
2018-10-17T12:17:06.131Z,20.90
2018-10-17T12:19:34.742Z,20.90
2018-10-17T12:22:04.183Z,20.90
2018-10-17T12:24:36.346Z,21.00
2018-10-17T12:27:05.103Z,21.00
2018-10-17T12:29:33.888Z,21.10
2018-10-17T12:32:02.458Z,21.20
2018-10-17T12:34:31.287Z,21.30
2018-10-17T12:36:59.844Z,21.40
2018-10-17T12:39:28.459Z,21.40
2018-10-17T12:41:57.155Z,21.50
2018-10-17T12:44:25.658Z,21.50
2018-10-17T12:46:54.319Z,21.60
2018-10-17T12:49:22.998Z,21.60
2018-10-17T12:51:51.520Z,21.60
2018-10-17T12:54:24.347Z,21.60
2018-10-17T12:56:52.966Z,21.60
2018-10-17T12:59:21.479Z,21.60
2018-10-17T13:01:49.983Z,21.60
2018-10-17T13:04:20.302Z,21.60
2018-10-17T13:06:51.400Z,21.70
2018-10-17T13:09:20.032Z,21.70
2018-10-17T13:11:48.594Z,21.80
2018-10-17T13:14:17.320Z,21.70
2018-10-17T13:16:45.834Z,21.70
2018-10-17T13:19:14.310Z,21.60
2018-10-17T13:21:42.980Z,21.60
2018-10-17T13:24:11.475Z,21.60
2018-10-17T13:26:40.070Z,21.60
2018-10-17T13:29:08.646Z,21.50
2018-10-17T13:31:37.470Z,21.50
2018-10-17T13:34:06.274Z,21.50
2018-10-17T13:36:35.049Z,21.50
2018-10-17T13:39:06.064Z,21.40
2018-10-17T13:41:34.551Z,21.40
2018-10-17T13:44:03.207Z,21.40
2018-10-17T13:46:31.823Z,21.50
2018-10-17T13:49:00.595Z,21.50
2018-10-17T13:51:29.346Z,21.50
2018-10-17T13:53:58.323Z,21.50
2018-10-17T13:56:26.807Z,21.40
2018-10-17T13:58:55.523Z,21.40
2018-10-17T14:01:24.270Z,21.40
2018-10-17T14:03:52.856Z,21.40
2018-10-17T14:06:21.523Z,21.40
2018-10-17T14:08:50.007Z,21.40
2018-10-17T14:11:18.501Z,21.40
2018-10-17T14:13:47.150Z,21.30
2018-10-17T14:16:15.691Z,21.30
2018-10-17T14:18:44.207Z,21.30
2018-10-17T14:21:12.753Z,21.30
2018-10-17T14:23:41.375Z,21.30
2018-10-17T14:26:09.858Z,21.30
2018-10-17T14:28:38.338Z,21.30
2018-10-17T14:31:06.847Z,21.40
2018-10-17T14:33:35.355Z,21.40
2018-10-17T14:36:03.884Z,21.50
2018-10-17T14:38:32.602Z,21.50
2018-10-17T14:41:01.080Z,21.50
2018-10-17T14:43:29.754Z,21.50
2018-10-17T14:45:58.442Z,21.40
2018-10-17T14:48:26.944Z,21.40
2018-10-17T14:50:55.481Z,21.40
2018-10-17T14:53:24.106Z,21.40
2018-10-17T14:55:52.671Z,21.40
2018-10-17T14:58:21.263Z,21.30
2018-10-17T15:00:49.815Z,21.30
2018-10-17T15:03:18.339Z,21.30
2018-10-17T15:05:46.886Z,21.20
2018-10-17T15:08:15.382Z,21.20
2018-10-17T15:10:44.173Z,21.20
2018-10-17T15:13:12.732Z,21.20
2018-10-17T15:15:44.038Z,21.20
2018-10-17T15:18:13.175Z,21.10
2018-10-17T15:20:42.049Z,21.00
2018-10-17T15:23:11.197Z,21.00
2018-10-17T15:25:39.778Z,20.90
2018-10-17T15:28:08.358Z,20.80
2018-10-17T15:30:36.899Z,20.70
2018-10-17T15:33:05.443Z,20.60
2018-10-17T15:35:34.219Z,20.50
2018-10-17T15:38:02.744Z,20.30
2018-10-17T15:40:31.229Z,20.20
2018-10-17T15:42:59.725Z,20.10
2018-10-17T15:45:28.393Z,20.00
2018-10-17T15:47:56.906Z,19.90
2018-10-17T15:50:25.603Z,19.90
2018-10-17T15:52:54.125Z,19.70
2018-10-17T15:55:22.772Z,19.60
2018-10-17T15:57:51.280Z,19.50
2018-10-17T16:00:19.842Z,19.40
2018-10-17T16:02:48.583Z,19.40
2018-10-17T16:05:17.175Z,19.40
2018-10-17T16:07:45.759Z,19.40
2018-10-17T16:10:14.247Z,19.30
2018-10-17T16:12:42.778Z,19.30
2018-10-17T16:15:11.334Z,19.10
2018-10-17T16:17:39.842Z,19.00
2018-10-17T16:20:10.747Z,18.90
2018-10-17T16:22:39.747Z,18.80
2018-10-17T16:25:09.651Z,18.70
2018-10-17T16:27:38.542Z,18.50
2018-10-17T16:30:10.303Z,18.30
2018-10-17T16:32:38.992Z,18.20
2018-10-17T16:35:08.124Z,18.20
2018-10-17T16:37:37.604Z,18.00
2018-10-17T16:40:07.083Z,17.90
2018-10-17T16:42:35.590Z,17.80
2018-10-17T16:45:04.338Z,17.70
2018-10-17T16:47:32.947Z,17.60
2018-10-17T16:50:01.644Z,17.50
2018-10-17T16:52:30.351Z,17.30
2018-10-17T16:54:58.923Z,17.30
2018-10-17T16:57:27.542Z,17.10
2018-10-17T16:59:56.083Z,17.00
2018-10-17T17:02:24.747Z,16.90
2018-10-17T17:04:53.344Z,16.80
2018-10-17T17:07:21.862Z,16.70
2018-10-17T17:09:50.417Z,16.60
2018-10-17T17:12:19.156Z,16.50
2018-10-17T17:14:47.828Z,16.50
2018-10-17T17:17:16.314Z,16.40
2018-10-17T17:19:44.847Z,16.40
2018-10-17T17:22:13.396Z,16.30
2018-10-17T17:24:41.919Z,16.20
2018-10-17T17:27:10.520Z,16.10
2018-10-17T17:29:39.354Z,16.10
2018-10-17T17:32:07.992Z,16.00
2018-10-17T17:34:36.535Z,15.90
2018-10-17T17:37:05.499Z,15.90
2018-10-17T17:39:34.015Z,15.80
2018-10-17T17:42:02.581Z,15.80
2018-10-17T17:44:31.357Z,15.80
2018-10-17T17:47:00.007Z,15.70
2018-10-17T17:49:28.582Z,15.70
2018-10-17T17:51:57.079Z,15.70
2018-10-17T17:54:25.851Z,15.70
2018-10-17T17:56:54.366Z,15.60
2018-10-17T17:59:22.855Z,15.60
2018-10-17T18:01:51.358Z,15.50
2018-10-17T18:04:19.899Z,15.50
2018-10-17T18:06:48.913Z,15.50
2018-10-17T18:09:17.463Z,15.50
2018-10-17T18:11:45.967Z,15.50
2018-10-17T18:14:14.523Z,15.50
2018-10-17T18:16:43.226Z,15.50
2018-10-17T18:19:11.792Z,15.60
2018-10-17T18:21:40.379Z,15.60
2018-10-17T18:24:09.026Z,15.70
2018-10-17T18:26:37.528Z,15.70
2018-10-17T18:29:06.045Z,15.80
2018-10-17T18:31:34.580Z,15.90
2018-10-17T18:34:03.121Z,15.90
2018-10-17T18:36:31.850Z,15.80
2018-10-17T18:39:00.320Z,15.70
2018-10-17T18:41:28.850Z,15.70
2018-10-17T18:43:57.348Z,15.60
2018-10-17T18:46:25.859Z,15.50
2018-10-17T18:48:54.474Z,15.40
2018-10-17T18:51:22.941Z,15.30
2018-10-17T18:53:51.462Z,15.30
2018-10-17T18:56:19.941Z,15.20
2018-10-17T18:58:48.687Z,15.10
2018-10-17T19:01:17.193Z,15.00
2018-10-17T19:03:45.714Z,15.00
2018-10-17T19:06:19.544Z,15.00
2018-10-17T19:08:48.390Z,14.90
2018-10-17T19:11:16.888Z,14.90
2018-10-17T19:13:45.491Z,14.90
2018-10-17T19:16:14.255Z,14.80
2018-10-17T19:18:42.890Z,14.80
2018-10-17T19:21:11.419Z,14.80
2018-10-17T19:23:40.087Z,14.70
2018-10-17T19:26:08.570Z,14.70
2018-10-17T19:28:37.111Z,14.60
2018-10-17T19:31:05.950Z,14.60
2018-10-17T19:33:34.444Z,14.60
2018-10-17T19:36:03.083Z,14.60
2018-10-17T19:38:31.762Z,14.50
2018-10-17T19:41:00.255Z,14.50
2018-10-17T19:43:28.878Z,14.50
2018-10-17T19:45:57.364Z,14.50
2018-10-17T19:48:25.868Z,14.50
2018-10-17T19:50:54.384Z,14.50
2018-10-17T19:53:22.885Z,14.40
2018-10-17T19:55:51.506Z,14.40
2018-10-17T19:58:20.072Z,14.40
2018-10-17T20:00:48.595Z,14.40
2018-10-17T20:03:17.094Z,14.40
2018-10-17T20:05:45.583Z,14.40
2018-10-17T20:08:14.056Z,14.40
2018-10-17T20:10:42.555Z,14.40
2018-10-17T20:13:11.414Z,14.40
2018-10-17T20:15:39.938Z,14.40
2018-10-17T20:18:08.447Z,14.30
2018-10-17T20:20:37.029Z,14.30
2018-10-17T20:23:05.743Z,14.30
2018-10-17T20:25:34.275Z,14.30
2018-10-17T20:28:03.574Z,14.30
2018-10-17T20:30:32.175Z,14.20
2018-10-17T20:33:00.717Z,14.20
2018-10-17T20:35:29.394Z,14.20
2018-10-17T20:37:57.914Z,14.20
2018-10-17T20:40:26.419Z,14.10
2018-10-17T20:42:54.946Z,14.10
2018-10-17T20:45:25.179Z,14.10
2018-10-17T20:47:53.703Z,14.10
2018-10-17T20:50:22.235Z,14.00
2018-10-17T20:52:50.768Z,14.00
2018-10-17T20:55:20.022Z,14.00
2018-10-17T20:57:48.491Z,14.00
2018-10-17T21:00:16.972Z,14.00
2018-10-17T21:02:45.467Z,13.90
2018-10-17T21:05:13.963Z,13.90
2018-10-17T21:07:42.667Z,13.90
2018-10-17T21:10:11.273Z,13.90
2018-10-17T21:12:41.710Z,13.90
2018-10-17T21:15:10.397Z,13.90
2018-10-17T21:17:39.796Z,13.90
2018-10-17T21:20:08.735Z,13.90
2018-10-17T21:22:37.411Z,13.90
2018-10-17T21:25:06.425Z,13.90
2018-10-17T21:27:35.240Z,13.90
2018-10-17T21:30:04.116Z,13.90
2018-10-17T21:32:32.708Z,13.90
2018-10-17T21:35:01.268Z,13.90
2018-10-17T21:37:29.836Z,13.90
2018-10-17T21:39:58.593Z,13.90
2018-10-17T21:42:27.231Z,13.80
2018-10-17T21:44:55.790Z,13.90
2018-10-17T21:47:24.392Z,13.90
2018-10-17T21:49:53.055Z,13.90
2018-10-17T21:52:21.694Z,13.90
2018-10-17T21:54:50.175Z,13.90
2018-10-17T21:57:21.236Z,13.90
2018-10-17T21:59:49.779Z,13.80
2018-10-17T22:02:18.263Z,13.80
2018-10-17T22:04:46.787Z,13.80
2018-10-17T22:07:15.266Z,13.80
2018-10-17T22:09:43.767Z,13.80
2018-10-17T22:12:12.468Z,13.80
2018-10-17T22:14:41.004Z,13.80
2018-10-17T22:17:09.458Z,13.80
2018-10-17T22:19:38.799Z,13.80
2018-10-17T22:22:08.007Z,13.80
2018-10-17T22:24:36.484Z,13.70
2018-10-17T22:27:05.410Z,13.70
2018-10-17T22:29:33.900Z,13.70
2018-10-17T22:32:02.760Z,13.70
2018-10-17T22:34:31.363Z,13.70
2018-10-17T22:36:59.818Z,13.60
2018-10-17T22:39:28.311Z,13.60
2018-10-17T22:41:56.778Z,13.60
2018-10-17T22:44:25.263Z,13.60
2018-10-17T22:46:53.747Z,13.60
2018-10-17T22:49:22.238Z,13.60
2018-10-17T22:51:50.755Z,13.60
2018-10-17T22:54:19.227Z,13.50
2018-10-17T22:56:47.681Z,13.50
2018-10-17T22:59:16.179Z,13.50
2018-10-17T23:01:45.003Z,13.50
2018-10-17T23:04:13.496Z,13.50
2018-10-17T23:06:42.014Z,13.50
2018-10-17T23:09:13.531Z,13.50
2018-10-17T23:11:42.743Z,13.50
2018-10-17T23:14:11.635Z,13.40
2018-10-17T23:16:40.744Z,13.40
2018-10-17T23:19:10.323Z,13.50
2018-10-17T23:21:39.175Z,13.40
2018-10-17T23:24:07.665Z,13.40
2018-10-17T23:26:37.104Z,13.40
2018-10-17T23:29:05.626Z,13.40
2018-10-17T23:31:34.118Z,13.40
2018-10-17T23:34:02.579Z,13.40
2018-10-17T23:36:31.074Z,13.40
2018-10-17T23:38:59.575Z,13.40
2018-10-17T23:41:28.111Z,13.40
2018-10-17T23:43:56.573Z,13.40
2018-10-17T23:46:25.054Z,13.40
2018-10-17T23:48:53.515Z,13.30
2018-10-17T23:51:22.027Z,13.20
2018-10-17T23:53:51.234Z,13.20
2018-10-17T23:56:19.745Z,13.10
2018-10-17T23:58:48.203Z,13.10
